• Join FlightAware (Why Join?)
  • Login
  • US Flag 
09:27AM EST


 

Airport Tracker/Info


-or-


 

Live Flight TrackerFlight Track Log ✈ LYM717 ✈ 26-Dec-2013 ✈ KMCK - KDEN

Flight Track Log - Related Links

Times and Time Zones

All times are in EST time to prevent confusion due to time zone crossing. See the LYM717 flight status page for this flight to view local times or setup timezone preferences in your user account.

Time Position Orientation Groundspeed Altitude Reporting Facility
EST Latitude Longitude Course Direction KTS MPH feet Rate Location/Type
07:14PM 40.1933 -100.7842 258° West 123 142 7,600  Level Denver Center
07:15PM 40.1858 -100.8258 257° West 123 142 8,700 1,080 Climbing Denver Center
07:16PM 40.1722 -100.8742 250° West 126 145 9,900 600 Climbing Denver Center
07:17PM 40.1647 -100.9183 257° West 126 145 10,000  Climbing Denver Center
07:18PM 40.1594 -100.9806 264° West 140 161 10,000  Level Denver Center
07:20PM 40.1748 -100.8846 258° West  Level FlightAware Approximate
07:20PM 40.1564 -101.0361 266° West 152 175 10,000  Level Denver Center
07:21PM 40.1517 -101.0914 264° West 156 180 9,900 -60 Descending Denver Center
07:22PM 40.1481 -101.1581 266° West 161 185 9,900  Level Denver Center
07:23PM 40.1450 -101.2153 266° West 163 188 10,000  Climbing Denver Center
07:24PM 40.1431 -101.2836 268° West 165 190 10,000 -60 Level Denver Center
07:25PM 40.1403 -101.3417 266° West 167 192 9,900  Descending Denver Center
07:26PM 40.1350 -101.4092 264° West 168 193 10,000  Climbing Denver Center
07:27PM 40.1342 -101.4658 269° West 165 190 10,000 -60 Level Denver Center
07:28PM 40.1328 -101.5342 268° West 166 191 9,900  Descending Denver Center
07:29PM 40.1275 -101.5933 263° West 170 196 10,000  Climbing Denver Center
07:30PM 40.1264 -101.6611 269° West 168 193 9,900  Descending Denver Center
07:31PM 40.1264 -101.7189 270° West 167 192 10,000  Climbing Denver Center
07:32PM 40.1258 -101.7778 269° West 168 193 10,000  Level Denver Center
07:33PM 40.1256 -101.8453 270° West 167 192 10,000  Level Denver Center
07:34PM 40.1239 -101.9025 268° West 166 191 10,000  Level Denver Center
07:35PM 40.1186 -101.9703 264° West 168 193 10,000  Level Denver Center
07:36PM 40.1122 -102.0264 262° West 167 192 10,000  Level Denver Center
07:37PM 40.1028 -102.0931 260° West 167 192 10,000  Level Denver Center
07:38PM 40.0950 -102.1508 260° West 167 192 10,000 -60 Level Denver Center
07:39PM 40.0872 -102.2169 261° West 166 191 9,900  Descending Denver Center
07:40PM 40.0817 -102.2742 263° West 166 191 10,000  Climbing Denver Center
07:41PM 40.0753 -102.3419 263° West 167 192 10,000  Level Denver Center
07:42PM 40.0694 -102.3989 262° West 167 192 10,000  Level Denver Center
07:43PM 40.0625 -102.4678 263° West 169 194 10,000  Level Denver Center
07:44PM 40.0550 -102.5261 260° West 170 196 10,000  Level Denver Center
07:45PM 40.0500 -102.5842 264° West 169 194 10,000  Level Denver Center
07:46PM 40.0472 -102.6519 267° West 167 192 10,000  Level Denver Center
07:47PM 40.0483 -102.7186 271° West 171 197 10,000  Level Denver Center
07:48PM 40.0400 -102.7803 260° West 174 200 10,000  Level Denver Center
07:49PM 40.0331 -102.8406 261° West 169 194 10,000  Level Denver Center
07:51PM 40.0267 -102.9011 262° West 169 194 10,000  Level Denver Center
07:52PM 40.0206 -102.9608 262° West 168 193 10,000  Level Denver Center
07:53PM 40.0175 -103.0242 266° West 170 196 10,000  Level Denver Center
07:54PM 40.0108 -103.0992 263° West 173 199 10,000  Level Denver Center
07:55PM 40.0042 -103.1614 262° West 174 200 10,000  Level Denver Center
07:56PM 39.9975 -103.2222 262° West 172 198 10,000  Level Denver Center
07:57PM 39.9919 -103.2828 263° West 171 197 10,000  Level Denver Center
07:58PM 39.9883 -103.3444 266° West 170 196 10,000  Level Denver Center
07:59PM 39.9844 -103.4167 266° West 168 193 10,000  Level Denver Center
08:00PM 39.9806 -103.4772 265° West 168 193 10,000  Level Denver Center
08:01PM 39.9753 -103.5383 264° West 169 194 10,000  Level Denver Center
08:02PM 39.9689 -103.5997 262° West 170 196 10,000  Level Denver Center
08:03PM 39.9639 -103.6597 264° West 169 194 10,000  Level Denver Center
08:04PM 39.9597 -103.7200 265° West 168 193 10,000 -60 Level Denver Center
08:05PM 39.9544 -103.7897 264° West 171 197 9,900  Descending Denver Center
08:06PM 39.9508 -103.8542 266° West 166 191 10,000  Climbing Denver Center
08:07PM 39.9472 -103.9142 266° West 168 193 9,900 -300 Descending Denver Center
08:08PM 39.9539 -103.9739 278° West 167 192 9,500 -600 Descending Denver Center
08:09PM 39.9625 -104.0458 279° West 182 209 8,700 -780 Descending Denver Center
08:10PM 39.9714 -104.1153 280° West 192 221 8,000 -420 Descending Denver Center
08:11PM 39.9803 -104.1892 279° West 192 221 7,900  Descending Denver Center
08:12PM 39.9875 -104.2536 278° West 183 211 8,000  Climbing Denver Center
08:13PM 39.9958 -104.3178 280° West 180 207 8,000  Level Denver Center
08:14PM 39.9986 -104.3878 273° West 181 208 8,000 -180 Level Denver Center
08:15PM 40.0000 -104.4333 272° West 184 212 7,700 -480 Descending Denver TRACON
08:16PM 40.0000 -104.5167 270° West 193 222 7,200 -360 Descending Denver TRACON
08:17PM 40.0000 -104.5833 270° West 192 221 7,000 -180 Descending Denver TRACON
08:18PM 39.9667 -104.6167 217° Southwest 171 197 6,900 -180 Descending Denver TRACON
08:19PM 39.9333 -104.6500 217° Southwest 133 153 6,700 -420 Descending Denver TRACON
08:20PM 39.9000 -104.6667 201° Southwest 128 147 6,100 -540 Descending Denver TRACON
08:21PM 39.8564 -104.6608 174° South 125 144 5,400 -540 Descending Denver Center
08:23PM 39.8500 -104.6667 201° Southwest  Level FlightAware Approximate
08:30PM 39.8617 -104.6732 201° Southwest  Level Estimated
08:31PM 39.8617 -104.6732 201° Southwest  Level Estimated
08:32PM 39.8617 -104.6732 201° Southwest  Level Estimated